| time (UTC) | temp F | wind direction | speed knots | gust knots | rain 1hr in | rain 24hr in | rain mn in | humidity % | barometer mb |
| 20260502195909 | 60 | 48 | 1.7 | 2.6 | 0.07 | 0.11 | 0.18 | 74 | 1013.8 |
| 20260502195413 | 60 | 0 | 0.9 | 5.2 | 0.07 | 0.11 | 0.18 | 74 | 1013.9 |
| 20260502194909 | 60 | 24 | 1.7 | 5.2 | 0.08 | 0.11 | 0.18 | 74 | 1013.9 |
| 20260502194410 | 60 | 89 | 2.6 | 4.3 | 0.09 | 0.11 | 0.18 | 74 | 1014.1 |
| 20260502193909 | 60 | 51 | 0.0 | 2.6 | 0.09 | 0.11 | 0.17 | 73 | 1014.4 |
| 20260502193411 | 60 | 38 | 0.9 | 7.8 | 0.09 | 0.11 | 0.17 | 73 | 1014.3 |
| 20260502192908 | 61 | 89 | 2.6 | 7.8 | 0.11 | 0.11 | 0.17 | 72 | 1014.4 |
| 20260502192409 | 61 | 87 | 2.6 | 5.2 | 0.13 | 0.11 | 0.16 | 72 | 1014.3 |
| 20260502192147 | 61 | 100 | 1.7 | 3.5 | 0.13 | 0.11 | 0.16 | 72 | 1014.4 |
| 20260502191407 | 61 | 90 | 0.9 | 2.6 | 0.12 | 0.11 | 0.14 | 72 | 1014.4 |
| 20260502190909 | 61 | 171 | 1.7 | 3.5 | 0.10 | 0.11 | 0.13 | 71 | 1014.3 |
| 20260502190406 | 61 | 166 | 1.7 | 3.5 | 0.08 | 0.11 | 0.11 | 71 | 1014.4 |
| 20260502185906 | 61 | 186 | 0.9 | 2.6 | 0.08 | 0.03 | 0.11 | 71 | 1014.4 |
| 20260502185641 | 61 | 171 | 1.7 | 3.5 | 0.08 | 0.03 | 0.11 | 70 | 1014.4 |
| 20260502184906 | 62 | 176 | 1.7 | 3.5 | 0.08 | 0.03 | 0.10 | 70 | 1014.4 |
| 20260502184406 | 62 | 189 | 1.7 | 4.3 | 0.07 | 0.03 | 0.09 | 69 | 1014.6 |
| 20260502183906 | 62 | 207 | 1.7 | 4.3 | 0.06 | 0.03 | 0.09 | 69 | 1014.8 |
| 20260502183639 | 63 | 237 | 1.7 | 6.1 | 0.06 | 0.03 | 0.08 | 68 | 1014.9 |
| 20260502182407 | 63 | 213 | 2.6 | 7.8 | 0.01 | 0.03 | 0.03 | 67 | 1014.7 |
| 20260502181906 | 63 | 213 | 2.6 | 8.7 | 0.02 | 0.03 | 0.03 | 66 | 1014.6 |
| 20260502181406 | 63 | 212 | 2.6 | 10.4 | 0.02 | 0.03 | 0.03 | 66 | 1014.5 |
| 20260502180905 | 63 | 188 | 4.3 | 13.0 | 0.03 | 0.03 | 0.03 | 66 | 1014.4 |
| 20260502180405 | 64 | 127 | 7.8 | 13.0 | 0.03 | 0.03 | 0.03 | 64 | 1014.3 |
| 20260502180144 | 64 | 148 | 7.0 | 17.4 | 0.03 | 0.00 | 0.03 | 63 | 1014.1 |
| 20260502170409 | 71 | 59 | 0.0 | 2.6 | 0.00 | 0.00 | 0.00 | 65 | 1013.8 |
| 20260502163904 | 72 | 83 | 3.5 | 8.7 | 0.00 | 0.00 | 0.00 | 60 | 1013.9 |
| 20260502163640 | 72 | 133 | 3.5 | 8.7 | 0.00 | 0.00 | 0.00 | 59 | 1014.0 |
| 20260502163146 | 73 | 175 | 3.5 | 13.0 | 0.00 | 0.00 | 0.00 | 58 | 1014.1 |
| 20260502162403 | 74 | 145 | 5.2 | 13.0 | 0.00 | 0.00 | 0.00 | 57 | 1014.3 |
| 20260502161905 | 75 | 140 | 7.8 | 11.3 | 0.00 | 0.00 | 0.00 | 55 | 1014.3 |
| 20260502161403 | 76 | 145 | 5.2 | 10.4 | 0.00 | 0.00 | 0.00 | 54 | 1014.3 |
| 20260502160904 | 76 | 69 | 3.5 | 8.7 | 0.00 | 0.00 | 0.00 | 54 | 1014.3 |
| 20260502151901 | 78 | 162 | 2.6 | 5.2 | 0.00 | 0.00 | 0.00 | 47 | 1014.9 |
| 20260502151401 | 79 | 182 | 1.7 | 5.2 | 0.00 | 0.00 | 0.00 | 48 | 1015.0 |
| 20260502150901 | 79 | 203 | 3.5 | 5.2 | 0.00 | 0.00 | 0.00 | 46 | 1015.0 |
| 20260502150401 | 79 | 259 | 0.9 | 3.5 | 0.00 | 0.00 | 0.00 | 48 | 1015.2 |
| 20260502130358 | 77 | 207 | 3.5 | 9.6 | 0.00 | 0.00 | 0.00 | 48 | 1016.8 |
| 20260502123357 | 77 | 230 | 5.2 | 8.7 | 0.00 | 0.00 | 0.00 | 48 | 1016.9 |
| 20260502122857 | 77 | 274 | 4.3 | 11.3 | 0.00 | 0.00 | 0.00 | 50 | 1016.9 |
| 20260502122357 | 77 | 199 | 4.3 | 11.3 | 0.00 | 0.00 | 0.00 | 50 | 1017.0 |
| 20260502121900 | 76 | 195 | 5.2 | 9.6 | 0.00 | 0.00 | 0.00 | 50 | 1017.2 |
| 20260502121137 | 76 | 209 | 5.2 | 12.2 | 0.00 | 0.00 | 0.00 | 49 | 1017.4 |
| 20260502120356 | 76 | 226 | 4.3 | 12.2 | 0.00 | 0.00 | 0.00 | 50 | 1017.4 |
| 20260502115858 | 76 | 217 | 5.2 | 12.2 | 0.00 | 0.00 | 0.00 | 49 | 1017.3 |
| 20260502115356 | 77 | 185 | 3.5 | 7.8 | 0.00 | 0.00 | 0.00 | 48 | 1017.4 |
| 20260502114856 | 77 | 165 | 2.6 | 7.8 | 0.00 | 0.00 | 0.00 | 50 | 1017.4 |
| 20260502114631 | 77 | 228 | 4.3 | 7.8 | 0.00 | 0.00 | 0.00 | 50 | 1017.5 |
| 20260502113855 | 76 | 307 | 2.6 | 7.8 | 0.00 | 0.00 | 0.00 | 50 | 1017.5 |
| 20260502113356 | 76 | 228 | 2.6 | 8.7 | 0.00 | 0.00 | 0.00 | 50 | 1017.6 |
| 20260502112857 | 76 | 220 | 4.3 | 8.7 | 0.00 | 0.00 | 0.00 | 50 | 1017.6 |
| 20260502112357 | 76 | 233 | 3.5 | 6.1 | 0.00 | 0.00 | 0.00 | 49 | 1017.7 |
| 20260502111856 | 76 | 175 | 2.6 | 6.1 | 0.00 | 0.00 | 0.00 | 51 | 1017.8 |
| 20260502111356 | 75 | 193 | 4.3 | 7.8 | 0.00 | 0.00 | 0.00 | 50 | 1017.9 |
| 20260502110855 | 76 | 237 | 3.5 | 7.8 | 0.00 | 0.00 | 0.00 | 50 | 1017.8 |
| 20260502110355 | 75 | 203 | 0.9 | 6.1 | 0.00 | 0.00 | 0.00 | 51 | 1017.9 |
| 20260502105854 | 75 | 203 | 3.5 | 8.7 | 0.00 | 0.00 | 0.00 | 50 | 1017.9 |
| 20260502105352 | 75 | 266 | 4.3 | 8.7 | 0.00 | 0.00 | 0.00 | 50 | 1018.1 |
| 20260502104851 | 75 | 190 | 2.6 | 6.1 | 0.00 | 0.00 | 0.00 | 51 | 1018.1 |
| 20260502104353 | 74 | 326 | 2.6 | 5.2 | 0.00 | 0.00 | 0.00 | 51 | 1018.1 |
| 20260502103853 | 74 | 210 | 3.5 | 8.7 | 0.00 | 0.00 | 0.00 | 50 | 1018.2 |
| 20260502103350 | 74 | 155 | 2.6 | 8.7 | 0.00 | 0.00 | 0.00 | 50 | 1018.2 |
| 20260502102849 | 74 | 190 | 3.5 | 7.8 | 0.00 | 0.00 | 0.00 | 51 | 1018.3 |
| 20260502102349 | 73 | 195 | 3.5 | 6.1 | 0.00 | 0.00 | 0.00 | 50 | 1018.4 |
| 20260502101849 | 73 | 233 | 2.6 | 9.6 | 0.00 | 0.00 | 0.00 | 52 | 1018.5 |
| 20260502101347 | 73 | 190 | 5.2 | 9.6 | 0.00 | 0.00 | 0.00 | 52 | 1018.5 |
| 20260502100847 | 73 | 199 | 0.9 | 7.8 | 0.00 | 0.00 | 0.00 | 53 | 1018.6 |
| 20260502100618 | 72 | 193 | 2.6 | 8.7 | 0.00 | 0.00 | 0.00 | 54 | 1018.6 |
| 20260502091338 | 69 | 235 | 3.5 | 6.1 | 0.00 | 0.00 | 0.00 | 55 | 1018.9 |
| 20260502090838 | 69 | 226 | 2.6 | 6.1 | 0.00 | 0.00 | 0.00 | 55 | 1018.9 |
| 20260502090337 | 69 | 193 | 1.7 | 5.2 | 0.00 | 0.00 | 0.00 | 55 | 1018.9 |
| 20260502071328 | 63 | 259 | 0.9 | 3.5 | 0.00 | 0.00 | 0.00 | 56 | 1019.3 |
| 20260502070828 | 62 | 262 | 0.0 | 2.6 | 0.00 | 0.00 | 0.00 | 57 | 1019.3 |
| 20260502070326 | 61 | 168 | 0.9 | 2.6 | 0.00 | 0.00 | 0.00 | 57 | 1019.4 |
| 20260502065827 | 60 | 203 | 0.9 | 1.7 | 0.00 | 0.00 | 0.00 | 58 | 1019.4 |
| 20260502065602 | 59 | 266 | 0.9 | 1.7 | 0.00 | 0.00 | 0.00 | 59 | 1019.4 |
| 20260502064826 | 58 | 157 | 0.0 | 1.7 | 0.00 | 0.00 | 0.00 | 60 | 1019.4 |
| 20260502064323 | 57 | 142 | 0.0 | 1.7 | 0.00 | 0.00 | 0.00 | 61 | 1019.3 |
| 20260502063822 | 56 | 142 | 0.9 | 1.7 | 0.00 | 0.00 | 0.00 | 61 | 1019.3 |
| 20260502063323 | 56 | 138 | 0.0 | 1.7 | 0.00 | 0.00 | 0.00 | 61 | 1019.3 |
| 20260502062819 | 55 | 103 | 0.0 | 1.7 | 0.00 | 0.00 | 0.00 | 62 | 1019.2 |
| 20260502062321 | 55 | 155 | 0.0 | 1.7 | 0.00 | 0.00 | 0.00 | 62 | 1019.3 |
| 20260502061820 | 55 | 141 | 0.9 | 2.6 | 0.00 | 0.00 | 0.00 | 61 | 1019.3 |
| 20260502061323 | 54 | 96 | 1.7 | 2.6 | 0.00 | 0.00 | 0.00 | 61 | 1019.3 |
| 20260502060820 | 54 | 134 | 0.0 | 2.6 | 0.00 | 0.00 | 0.00 | 62 | 1019.3 |
| 20260502060320 | 54 | 144 | 1.7 | 2.6 | 0.00 | 0.00 | 0.00 | 62 | 1019.2 |
| 20260502055819 | 54 | 128 | 0.9 | 2.6 | 0.00 | 0.00 | 0.00 | 62 | 1019.2 |
| 20260502055319 | 54 | 117 | 0.9 | 2.6 | 0.00 | 0.00 | 0.00 | 62 | 1019.3 |
| 20260502054816 | 53 | 145 | 0.9 | 3.5 | 0.00 | 0.00 | 0.00 | 62 | 1019.4 |
| 20260502054317 | 53 | 151 | 1.7 | 3.5 | 0.00 | 0.00 | 0.00 | 63 | 1019.3 |
| 20260502053814 | 53 | 142 | 0.9 | 2.6 | 0.00 | 0.00 | 0.00 | 63 | 1019.4 |
| 20260502053314 | 53 | 148 | 1.7 | 2.6 | 0.00 | 0.00 | 0.00 | 64 | 1019.3 |
| 20260502053053 | 52 | 154 | 0.0 | 4.3 | 0.00 | 0.00 | 0.00 | 64 | 1019.2 |
| 20260502052315 | 52 | 154 | 0.0 | 5.2 | 0.00 | 0.00 | 0.00 | 64 | 1019.1 |
| 20260502051815 | 52 | 151 | 3.5 | 5.2 | 0.00 | 0.00 | 0.00 | 64 | 1019.1 |
| 20260502051311 | 51 | 131 | 0.9 | 2.6 | 0.00 | 0.00 | 0.00 | 66 | 1019.1 |
| 20260502050810 | 51 | 113 | 0.9 | 2.6 | 0.00 | 0.00 | 0.00 | 67 | 1019.1 |
| 20260502050316 | 50 | 131 | 0.9 | 2.6 | 0.00 | 0.00 | 0.00 | 68 | 1019.1 |
| 20260502045310 | 48 | 110 | 0.0 | 1.7 | 0.00 | 0.00 | 0.00 | 68 | 1019.1 |
| 20260502044808 | 48 | 133 | 0.0 | 1.7 | 0.00 | 0.00 | 0.00 | 68 | 1019.1 |
| 20260502044307 | 47 | 0 | 0.9 | 2.6 | 0.00 | 0.00 | 0.00 | 68 | 1019.2 |
| 20260502043808 | 47 | 116 | 0.9 | 2.6 | 0.00 | 0.00 | 0.00 | 68 | 1019.1 |
| 20260502043308 | 46 | 93 | 0.9 | 2.6 | 0.00 | 0.00 | 0.00 | 68 | 1019.2 |
| 20260502042806 | 46 | 140 | 1.7 | 2.6 | 0.00 | 0.00 | 0.00 | 68 | 1019.4 |
| 20260502042306 | 46 | 138 | 1.7 | 2.6 | 0.00 | 0.00 | 0.00 | 67 | 1019.4 |
| 20260502041804 | 46 | 165 | 0.0 | 1.7 | 0.00 | 0.00 | 0.00 | 66 | 1019.3 |
| 20260502041303 | 46 | 165 | 0.0 | 1.7 | 0.00 | 0.00 | 0.00 | 67 | 1019.3 |
| 20260502040805 | 46 | 165 | 0.9 | 1.7 | 0.00 | 0.00 | 0.00 | 66 | 1019.2 |
| 20260502040303 | 47 | 233 | 0.0 | 0.9 | 0.00 | 0.00 | 0.00 | 66 | 1019.3 |
| 20260502035802 | 47 | 233 | 0.0 | 1.7 | 0.00 | 0.00 | 0.00 | 67 | 1019.3 |
| 20260502035537 | 47 | 233 | 0.0 | 1.7 | 0.00 | 0.00 | 0.00 | 67 | 1019.5 |
| 20260502034801 | 47 | 234 | 0.0 | 1.7 | 0.00 | 0.00 | 0.00 | 67 | 1019.5 |
| 20260502034302 | 47 | 235 | 0.9 | 1.7 | 0.00 | 0.00 | 0.00 | 67 | 1019.4 |
| 20260502033805 | 47 | 171 | 0.0 | 0.9 | 0.00 | 0.00 | 0.00 | 66 | 1019.3 |
| 20260502033537 | 47 | 169 | 0.0 | 0.9 | 0.00 | 0.00 | 0.00 | 66 | 1019.4 |
| 20260502032803 | 47 | 145 | 0.0 | 2.6 | 0.00 | 0.00 | 0.00 | 67 | 1019.3 |
| 20260502032305 | 46 | 145 | 0.9 | 2.6 | 0.00 | 0.00 | 0.00 | 67 | 1019.4 |
| 20260502032045 | 46 | 140 | 0.9 | 2.6 | 0.00 | 0.00 | 0.00 | 68 | 1019.4 |
| 20260502031303 | 46 | 148 | 0.9 | 2.6 | 0.00 | 0.00 | 0.00 | 67 | 1019.4 |
| 20260502030804 | 46 | 131 | 0.0 | 2.6 | 0.00 | 0.00 | 0.00 | 66 | 1019.4 |
| 20260502030302 | 46 | 131 | 0.0 | 2.6 | 0.00 | 0.00 | 0.00 | 67 | 1019.4 |
| 20260502025803 | 46 | 158 | 1.7 | 2.6 | 0.00 | 0.00 | 0.00 | 68 | 1019.6 |
| 20260502025302 | 46 | 154 | 0.0 | 2.6 | 0.00 | 0.00 | 0.00 | 69 | 1019.5 |
| 20260502024801 | 45 | 125 | 0.9 | 1.7 | 0.00 | 0.00 | 0.00 | 69 | 1019.6 |
| 20260502024302 | 44 | 151 | 0.9 | 1.7 | 0.00 | 0.00 | 0.00 | 70 | 1019.6 |
| 20260502023803 | 44 | 154 | 0.9 | 1.7 | 0.00 | 0.00 | 0.00 | 70 | 1019.7 |
| 20260502023539 | 44 | 127 | 0.0 | 0.9 | 0.00 | 0.00 | 0.00 | 70 | 1019.6 |
| 20260502022802 | 44 | 127 | 0.0 | 0.0 | 0.00 | 0.00 | 0.00 | 70 | 1019.6 |
| 20260502022301 | 43 | 127 | 0.0 | 0.0 | 0.00 | 0.00 | 0.00 | 70 | 1019.7 |
| 20260502021802 | 43 | 127 | 0.0 | 0.0 | 0.00 | 0.00 | 0.00 | 69 | 1019.7 |
| 20260502021302 | 43 | 127 | 0.0 | 1.7 | 0.00 | 0.00 | 0.00 | 69 | 1019.8 |
| 20260502020801 | 43 | 127 | 0.0 | 1.7 | 0.00 | 0.00 | 0.00 | 70 | 1019.9 |
| 20260502020302 | 43 | 149 | 0.0 | 1.7 | 0.00 | 0.00 | 0.00 | 69 | 1019.9 |
| 20260502015802 | 43 | 94 | 0.0 | 0.0 | 0.00 | 0.00 | 0.00 | 69 | 1019.9 |
| 20260502015537 | 44 | 94 | 0.0 | 0.9 | 0.00 | 0.00 | 0.00 | 69 | 1019.9 |
| 20260502014802 | 44 | 94 | 0.0 | 0.9 | 0.00 | 0.00 | 0.00 | 70 | 1019.9 |
| 20260502014301 | 43 | 94 | 0.0 | 0.0 | 0.00 | 0.00 | 0.00 | 69 | 1019.9 |
| 20260502013802 | 44 | 94 | 0.0 | 0.9 | 0.00 | 0.00 | 0.00 | 69 | 1020.0 |
| 20260502013302 | 43 | 94 | 0.0 | 0.9 | 0.00 | 0.00 | 0.00 | 69 | 1020.0 |
| 20260502013044 | 44 | 94 | 0.0 | 0.9 | 0.00 | 0.00 | 0.00 | 68 | 1019.9 |
| 20260502012306 | 44 | 93 | 0.0 | 0.0 | 0.00 | 0.00 | 0.00 | 68 | 1020.1 |
| 20260502011801 | 44 | 93 | 0.0 | 0.0 | 0.00 | 0.00 | 0.00 | 69 | 1020.1 |
| 20260502011303 | 44 | 93 | 0.0 | 0.0 | 0.00 | 0.00 | 0.00 | 68 | 1020.1 |
| 20260502010803 | 44 | 93 | 0.0 | 0.0 | 0.00 | 0.00 | 0.00 | 68 | 1020.0 |
| 20260502010302 | 44 | 93 | 0.0 | 0.0 | 0.00 | 0.00 | 0.00 | 68 | 1020.2 |
| 20260502005801 | 44 | 93 | 0.0 | 0.0 | 0.00 | 0.00 | 0.00 | 68 | 1020.3 |
| 20260502005258 | 44 | 94 | 0.0 | 0.0 | 0.00 | 0.00 | 0.00 | 67 | 1020.3 |
| 20260502004800 | 44 | 94 | 0.0 | 0.0 | 0.00 | 0.00 | 0.00 | 67 | 1020.3 |
| 20260502004259 | 45 | 96 | 0.0 | 0.0 | 0.00 | 0.00 | 0.00 | 67 | 1020.3 |
| 20260502003758 | 45 | 96 | 0.0 | 0.0 | 0.00 | 0.00 | 0.00 | 67 | 1020.3 |
| 20260502003300 | 45 | 96 | 0.0 | 0.0 | 0.00 | 0.00 | 0.00 | 67 | 1020.4 |
| 20260502002756 | 45 | 96 | 0.0 | 0.0 | 0.00 | 0.00 | 0.00 | 67 | 1020.4 |
| 20260502002257 | 46 | 94 | 0.0 | 0.0 | 0.00 | 0.00 | 0.00 | 67 | 1020.4 |
| 20260502001756 | 46 | 93 | 0.0 | 0.0 | 0.00 | 0.00 | 0.00 | 67 | 1020.4 |
| 20260502001255 | 46 | 93 | 0.0 | 0.9 | 0.00 | 0.00 | 0.00 | 67 | 1020.5 |
| 20260502001037 | 46 | 93 | 0.0 | 0.9 | 0.00 | 0.00 | 0.00 | 67 | 1020.5 |
| 20260502000255 | 46 | 93 | 0.0 | 0.9 | 0.00 | 0.00 | 0.00 | 66 | 1020.6 |
| 20260501235753 | 46 | 93 | 0.0 | 0.9 | 0.00 | 0.00 | 0.00 | 67 | 1020.7 |
| 20260501235253 | 46 | 93 | 0.0 | 0.0 | 0.00 | 0.00 | 0.00 | 67 | 1020.8 |
| 20260501234755 | 46 | 93 | 0.0 | 0.0 | 0.00 | 0.00 | 0.00 | 67 | 1020.8 |
| 20260501234252 | 47 | 93 | 0.0 | 0.0 | 0.00 | 0.00 | 0.00 | 66 | 1020.8 |
| 20260501233752 | 47 | 93 | 0.0 | 0.0 | 0.00 | 0.00 | 0.00 | 66 | 1020.9 |
| 20260501233250 | 47 | 93 | 0.0 | 0.9 | 0.00 | 0.00 | 0.00 | 66 | 1021.0 |
| 20260501232750 | 47 | 92 | 0.0 | 0.9 | 0.00 | 0.00 | 0.00 | 66 | 1021.0 |
| 20260501232249 | 47 | 92 | 0.0 | 1.7 | 0.00 | 0.00 | 0.00 | 66 | 1021.0 |
| 20260501232034 | 47 | 92 | 0.9 | 1.7 | 0.00 | 0.00 | 0.00 | 66 | 1021.0 |
| 20260501231042 | 48 | 92 | 0.9 | 0.9 | 0.00 | 0.00 | 0.00 | 65 | 1021.2 |
| 20260501230522 | 48 | 92 | 0.0 | 0.0 | 0.00 | 0.00 | 0.00 | 65 | 1021.2 |
| 20260501225747 | 49 | 92 | 0.0 | 0.0 | 0.00 | 0.00 | 0.00 | 64 | 1021.3 |
| 20260501225249 | 49 | 92 | 0.0 | 0.0 | 0.00 | 0.00 | 0.00 | 65 | 1021.3 |
| 20260501224246 | 49 | 92 | 0.0 | 0.0 | 0.00 | 0.00 | 0.00 | 64 | 1021.4 |
| 20260501224019 | 49 | 92 | 0.0 | 0.9 | 0.00 | 0.00 | 0.00 | 64 | 1021.3 |
| 20260501223244 | 50 | 92 | 0.0 | 0.9 | 0.00 | 0.00 | 0.00 | 64 | 1021.3 |
| 20260501222743 | 50 | 92 | 0.0 | 0.9 | 0.00 | 0.00 | 0.00 | 64 | 1021.2 |
| 20260501222241 | 50 | 92 | 0.0 | 1.7 | 0.00 | 0.00 | 0.00 | 64 | 1021.2 |
| 20260501221741 | 50 | 92 | 0.9 | 1.7 | 0.00 | 0.00 | 0.00 | 64 | 1021.2 |
| 20260501221519 | 50 | 92 | 0.0 | 0.0 | 0.00 | 0.00 | 0.00 | 64 | 1021.3 |
| 20260501220239 | 51 | 92 | 0.0 | 0.0 | 0.00 | 0.00 | 0.00 | 63 | 1021.2 |
| 20260501215738 | 51 | 92 | 0.0 | 0.0 | 0.00 | 0.00 | 0.00 | 62 | 1021.2 |
| 20260501215239 | 51 | 92 | 0.0 | 0.0 | 0.00 | 0.00 | 0.00 | 62 | 1021.3 |
| 20260501214739 | 51 | 92 | 0.0 | 1.7 | 0.00 | 0.00 | 0.00 | 62 | 1021.2 |
| 20260501214240 | 51 | 92 | 0.0 | 1.7 | 0.00 | 0.00 | 0.00 | 62 | 1021.2 |
| 20260501213739 | 52 | 117 | 0.9 | 1.7 | 0.00 | 0.00 | 0.00 | 61 | 1021.3 |
| 20260501213239 | 52 | 189 | 0.0 | 0.0 | 0.00 | 0.00 | 0.00 | 61 | 1021.4 |
| 20260501212740 | 53 | 189 | 0.0 | 0.0 | 0.00 | 0.00 | 0.00 | 60 | 1021.3 |
| 20260501212237 | 53 | 189 | 0.0 | 0.0 | 0.00 | 0.00 | 0.00 | 60 | 1021.3 |
| 20260501211737 | 53 | 189 | 0.0 | 0.0 | 0.00 | 0.00 | 0.00 | 58 | 1021.4 |
| 20260501211237 | 54 | 189 | 0.0 | 0.0 | 0.00 | 0.00 | 0.00 | 57 | 1021.3 |
| 20260501210738 | 55 | 189 | 0.0 | 0.0 | 0.00 | 0.00 | 0.00 | 56 | 1021.4 |
| 20260501210238 | 56 | 189 | 0.0 | 0.0 | 0.00 | 0.00 | 0.00 | 55 | 1021.4 |
| 20260501205739 | 56 | 189 | 0.0 | 0.0 | 0.00 | 0.00 | 0.00 | 53 | 1021.3 |
| 20260501205236 | 57 | 189 | 0.0 | 0.0 | 0.00 | 0.00 | 0.00 | 52 | 1021.3 |
| 20260501204738 | 58 | 189 | 0.0 | 0.0 | 0.00 | 0.00 | 0.00 | 51 | 1021.3 |
| 20260501204511 | 59 | 189 | 0.0 | 0.0 | 0.00 | 0.00 | 0.00 | 50 | 1021.3 |
| 20260501203736 | 60 | 189 | 0.0 | 0.0 | 0.00 | 0.00 | 0.00 | 50 | 1021.3 |
| 20260501203236 | 60 | 189 | 0.0 | 0.0 | 0.00 | 0.00 | 0.00 | 48 | 1021.4 |
| 20260501202736 | 61 | 189 | 0.0 | 0.0 | 0.00 | 0.00 | 0.00 | 48 | 1021.4 |
| 20260501202237 | 62 | 189 | 0.0 | 4.3 | 0.00 | 0.00 | 0.00 | 47 | 1021.4 |
| 20260501201735 | 62 | 189 | 0.0 | 4.3 | 0.00 | 0.00 | 0.00 | 47 | 1021.3 |
| 20260501201236 | 62 | 152 | 1.7 | 3.5 | 0.00 | 0.00 | 0.00 | 46 | 1021.3 |
| 20260501200736 | 63 | 176 | 0.9 | 2.6 | 0.00 | 0.00 | 0.00 | 46 | 1021.1 |
| 20260501200236 | 63 | 155 | 0.9 | 2.6 | 0.00 | 0.00 | 0.00 | 45 | 1021.1 |